createdAt,value
2023-07-24T00:00:46.937Z,18.5
2023-07-24T00:10:53.029Z,18.5
2023-07-24T00:20:59.042Z,18.5
2023-07-24T00:31:05.129Z,18.5
2023-07-24T00:41:11.124Z,18.5
2023-07-24T00:51:17.184Z,18.3
2023-07-24T01:01:23.213Z,18.3
2023-07-24T01:11:28.293Z,18.2
2023-07-24T01:21:34.461Z,18.2
2023-07-24T01:31:40.367Z,18.1
2023-07-24T01:41:46.415Z,18.1
2023-07-24T01:51:52.488Z,18
2023-07-24T02:01:58.570Z,18
2023-07-24T02:12:04.557Z,18.1
2023-07-24T02:22:10.598Z,18.1
2023-07-24T02:32:16.649Z,18.1
2023-07-24T02:42:22.696Z,18.1
2023-07-24T02:52:28.735Z,18.1
2023-07-24T03:02:34.778Z,18.1
2023-07-24T03:12:40.804Z,18.1
2023-07-24T03:22:45.877Z,18.1
2023-07-24T03:32:51.927Z,18
2023-07-24T03:42:57.976Z,18
2023-07-24T03:53:04.061Z,18.1
2023-07-24T04:03:10.065Z,18.1
2023-07-24T04:13:16.111Z,18.2
2023-07-24T04:23:22.147Z,18.2
2023-07-24T04:33:28.215Z,18.1
2023-07-24T04:43:34.263Z,18.1
2023-07-24T04:53:40.309Z,18.1
2023-07-24T05:03:46.325Z,18
2023-07-24T05:13:52.388Z,18
2023-07-24T05:23:58.437Z,18
2023-07-24T05:34:03.490Z,18
2023-07-24T05:44:09.525Z,18
2023-07-24T05:54:15.570Z,18.1
2023-07-24T06:04:21.624Z,18.1
2023-07-24T06:14:27.670Z,18.1
2023-07-24T06:34:39.831Z,18.2
2023-07-24T06:44:45.807Z,18.2
2023-07-24T06:54:51.872Z,18.3
2023-07-24T07:04:57.911Z,18.4
2023-07-24T07:15:04.000Z,18.5
2023-07-24T07:35:16.081Z,18.5
2023-07-24T07:45:21.089Z,18.6
2023-07-24T07:55:27.156Z,18.6
2023-07-24T08:05:33.196Z,18.6
2023-07-24T08:15:39.274Z,18.5
2023-07-24T08:25:45.286Z,18.5
2023-07-24T08:35:51.354Z,18.7
2023-07-24T08:45:57.367Z,19
2023-07-24T08:56:03.412Z,19.1
2023-07-24T09:06:09.652Z,19.2
2023-07-24T09:16:15.493Z,19.4
2023-07-24T09:26:21.607Z,19.8
2023-07-24T09:36:27.658Z,20.1
2023-07-24T09:46:33.636Z,20
2023-07-24T09:56:38.754Z,20
2023-07-24T10:06:44.756Z,20.2
2023-07-24T10:16:50.809Z,20.6
2023-07-24T10:26:56.845Z,20.8
2023-07-24T10:37:02.886Z,20.7
2023-07-24T10:47:08.931Z,20.5
2023-07-24T10:57:14.976Z,20.5
2023-07-24T11:07:21.115Z,20.9
2023-07-24T11:27:33.116Z,21.3
2023-07-24T11:37:39.154Z,21.3
2023-07-24T11:47:45.293Z,21.1
2023-07-24T11:57:51.239Z,21.2
2023-07-24T12:07:56.436Z,21.1
2023-07-24T12:18:02.373Z,20.9
2023-07-24T12:28:08.403Z,20.6
2023-07-24T12:38:14.450Z,20.1
2023-07-24T12:48:20.494Z,19.6
2023-07-24T12:58:26.539Z,19.4
2023-07-24T13:08:32.792Z,19.2
2023-07-24T13:18:38.706Z,19.3
2023-07-24T13:28:44.670Z,19.7
2023-07-24T13:38:50.715Z,20.3
2023-07-24T13:48:56.756Z,20.8
2023-07-24T13:59:02.817Z,21.1
2023-07-24T14:09:08.871Z,21.1
2023-07-24T14:19:13.922Z,21.1
2023-07-24T14:29:20.026Z,21
2023-07-24T14:39:26.093Z,21.1
2023-07-24T14:49:32.063Z,21.8
2023-07-24T14:59:38.099Z,22.8
2023-07-24T15:09:44.160Z,22.7
2023-07-24T15:19:50.208Z,22.7
2023-07-24T15:29:56.296Z,22.7
2023-07-24T15:40:02.274Z,22.7
2023-07-24T15:50:08.333Z,22.8
2023-07-24T16:00:14.372Z,22.9
2023-07-24T16:10:20.418Z,22.7
2023-07-24T16:20:26.466Z,22.3
2023-07-24T16:30:31.593Z,22
2023-07-24T16:40:37.582Z,21.5
2023-07-24T16:50:43.616Z,20.9
2023-07-24T17:00:49.665Z,20.5
2023-07-24T17:10:55.704Z,20.3
2023-07-24T17:21:01.747Z,20.2
2023-07-24T17:31:07.829Z,19.8
2023-07-24T17:41:13.839Z,19.5
2023-07-24T17:51:20.009Z,19.2
2023-07-24T18:01:25.922Z,19
2023-07-24T18:11:32.041Z,18.9
2023-07-24T18:21:38.025Z,18.8
2023-07-24T18:31:44.088Z,18.7
2023-07-24T18:41:49.156Z,18.6
2023-07-24T18:51:55.205Z,18.4
2023-07-24T19:02:01.333Z,18.3
2023-07-24T19:12:07.285Z,18.2
2023-07-24T19:22:13.328Z,18.1
2023-07-24T19:32:19.359Z,18
2023-07-24T19:42:25.418Z,17.9
2023-07-24T19:52:31.444Z,17.8
2023-07-24T20:02:37.493Z,17.7
2023-07-24T20:12:43.530Z,17.6
2023-07-24T20:22:49.730Z,17.5
2023-07-24T20:32:55.634Z,17.5
2023-07-24T20:43:01.864Z,17.4
2023-07-24T20:53:06.751Z,17.3
2023-07-24T21:03:12.033Z,17.3
2023-07-24T21:13:17.985Z,17.2
2023-07-24T21:23:23.896Z,17.1
2023-07-24T21:33:30.060Z,16.8
2023-07-24T21:43:36.049Z,16.8
2023-07-24T21:53:42.191Z,16.7
2023-07-24T22:03:48.141Z,16.6
2023-07-24T22:13:54.126Z,16.5
2023-07-24T22:24:00.232Z,16.3
2023-07-24T22:34:06.330Z,16.2
2023-07-24T22:44:12.267Z,16.1
2023-07-24T22:54:18.394Z,16.1
2023-07-24T23:04:24.352Z,16.1
2023-07-24T23:14:29.469Z,16
2023-07-24T23:24:35.497Z,15.9
2023-07-24T23:34:41.501Z,15.8
2023-07-24T23:44:47.547Z,15.7
2023-07-24T23:54:53.603Z,15.7
